TimeCST,TemperatureF,Dew PointF,Humidity,Sea Level PressureIn,VisibilityMPH,Wind Direction,Wind SpeedMPH,Gust SpeedMPH,PrecipitationIn,Events,Conditions,WindDirDegrees,DateUTC
12:12 AM,17.6,17.6,100,29.79,10.0,NW,6.9,-,N/A,,Mostly Cloudy,320,2012-12-17 06:12:00
12:32 AM,17.6,15.8,93,29.79,10.0,NW,5.8,-,N/A,,Mostly Cloudy,310,2012-12-17 06:32:00
12:51 AM,17.6,17.6,100,29.79,10.0,NW,5.8,-,N/A,,Overcast,310,2012-12-17 06:51:00
1:12 AM,17.6,17.6,100,29.79,7.0,NNW,3.5,-,N/A,,Overcast,340,2012-12-17 07:12:00
1:32 AM,17.6,17.6,100,29.79,10.0,Calm,Calm,-,N/A,,Overcast,0,2012-12-17 07:32:00
1:51 AM,17.6,17.6,100,29.78,10.0,NW,4.6,-,N/A,,Overcast,310,2012-12-17 07:51:00
2:12 AM,17.6,17.6,100,29.78,10.0,NW,4.6,-,N/A,,Overcast,320,2012-12-17 08:12:00
2:32 AM,17.6,15.8,93,29.78,7.0,WNW,5.8,-,N/A,,Overcast,300,2012-12-17 08:32:00
2:51 AM,19.4,17.6,93,29.78,10.0,NW,4.6,-,N/A,,Overcast,320,2012-12-17 08:51:00
3:12 AM,17.6,17.6,100,29.78,10.0,WNW,3.5,-,N/A,,Overcast,300,2012-12-17 09:12:00
3:32 AM,19.4,17.6,93,29.78,10.0,West,4.6,-,N/A,,Overcast,280,2012-12-17 09:32:00
3:51 AM,19.4,17.6,93,29.77,10.0,NW,5.8,-,N/A,,Overcast,320,2012-12-17 09:51:00
4:12 AM,19.4,17.6,93,29.77,10.0,NW,4.6,-,N/A,,Overcast,320,2012-12-17 10:12:00
4:31 AM,19.4,17.6,93,29.76,10.0,North,4.6,-,N/A,,Overcast,350,2012-12-17 10:31:00
4:52 AM,19.4,17.6,93,29.76,10.0,Calm,Calm,-,N/A,,Overcast,0,2012-12-17 10:52:00
5:12 AM,19.4,17.6,93,29.76,10.0,NNE,3.5,-,N/A,,Overcast,20,2012-12-17 11:12:00
5:31 AM,19.4,17.6,93,29.76,10.0,NNE,3.5,-,N/A,,Overcast,30,2012-12-17 11:31:00
6:12 AM,19.4,17.6,93,29.76,10.0,NNE,4.6,-,N/A,,Overcast,30,2012-12-17 12:12:00
6:31 AM,19.4,17.6,93,29.76,10.0,Calm,Calm,-,N/A,,Overcast,0,2012-12-17 12:31:00
6:52 AM,19.4,17.6,93,29.77,7.0,East,3.5,-,N/A,,Overcast,100,2012-12-17 12:52:00
7:12 AM,19.4,17.6,93,29.77,7.0,Calm,Calm,-,N/A,,Overcast,0,2012-12-17 13:12:00
7:31 AM,19.4,17.6,93,29.77,7.0,Calm,Calm,-,N/A,,Overcast,0,2012-12-17 13:31:00
7:52 AM,19.4,17.6,93,29.77,7.0,Calm,Calm,-,N/A,,Unknown,0,2012-12-17 13:52:00
8:12 AM,19.4,17.6,93,29.77,7.0,Calm,Calm,-,N/A,,Overcast,0,2012-12-17 14:12:00
8:31 AM,19.4,17.6,93,29.77,7.0,Calm,Calm,-,N/A,,Overcast,0,2012-12-17 14:31:00
8:52 AM,19.4,17.6,93,29.76,7.0,ESE,3.5,-,N/A,,Overcast,110,2012-12-17 14:52:00
9:12 AM,19.4,17.6,93,29.77,10.0,Calm,Calm,-,N/A,,Overcast,0,2012-12-17 15:12:00
9:31 AM,19.4,17.6,93,29.77,10.0,Calm,Calm,-,N/A,,Overcast,0,2012-12-17 15:31:00
9:52 AM,19.4,17.6,93,29.77,7.0,Calm,Calm,-,N/A,,Overcast,0,2012-12-17 15:52:00
10:12 AM,19.4,17.6,93,29.77,7.0,Calm,Calm,-,N/A,,Overcast,0,2012-12-17 16:12:00
10:31 AM,19.4,17.6,93,29.76,7.0,Calm,Calm,-,N/A,,Overcast,0,2012-12-17 16:31:00
10:52 AM,19.4,17.6,93,29.75,7.0,Calm,Calm,-,N/A,,Overcast,0,2012-12-17 16:52:00
11:12 AM,21.2,17.6,86,29.74,7.0,Calm,Calm,-,N/A,,Overcast,0,2012-12-17 17:12:00
11:31 AM,19.4,17.6,93,29.74,7.0,Calm,Calm,-,N/A,,Overcast,0,2012-12-17 17:31:00
11:52 AM,21.2,17.6,86,29.72,7.0,Calm,Calm,-,N/A,,Overcast,0,2012-12-17 17:52:00
12:11 PM,21.2,19.4,93,29.72,7.0,Calm,Calm,-,N/A,,Overcast,0,2012-12-17 18:11:00
12:32 PM,21.2,17.6,86,29.72,7.0,Calm,Calm,-,N/A,,Overcast,0,2012-12-17 18:32:00
12:52 PM,21.2,19.4,93,29.71,7.0,Calm,Calm,-,N/A,,Overcast,0,2012-12-17 18:52:00
1:11 PM,21.2,19.4,93,29.71,7.0,Calm,Calm,-,N/A,,Overcast,0,2012-12-17 19:11:00
1:32 PM,21.2,19.4,93,29.70,7.0,ENE,3.5,-,N/A,,Overcast,60,2012-12-17 19:32:00
1:52 PM,21.2,19.4,93,29.70,7.0,Calm,Calm,-,N/A,,Overcast,0,2012-12-17 19:52:00
2:11 PM,21.2,19.4,93,29.70,7.0,Calm,Calm,-,N/A,,Overcast,0,2012-12-17 20:11:00
2:32 PM,21.2,19.4,93,29.70,7.0,Calm,Calm,-,N/A,,Overcast,0,2012-12-17 20:32:00
2:52 PM,21.2,19.4,93,29.69,7.0,Calm,Calm,-,N/A,,Overcast,0,2012-12-17 20:52:00
3:11 PM,21.2,19.4,93,29.69,7.0,East,3.5,-,N/A,,Overcast,90,2012-12-17 21:11:00
3:32 PM,21.2,19.4,93,29.69,10.0,Calm,Calm,-,N/A,,Overcast,0,2012-12-17 21:32:00
3:52 PM,21.2,19.4,93,29.70,10.0,Calm,Calm,-,N/A,,Overcast,0,2012-12-17 21:52:00
6:32 PM,21.2,19.4,93,29.70,7.0,East,3.5,-,N/A,,Mostly Cloudy,100,2012-12-18 00:32:00
6:52 PM,21.2,19.4,93,29.71,7.0,Calm,Calm,-,N/A,,Overcast,0,2012-12-18 00:52:00
7:11 PM,21.2,19.4,93,29.71,7.0,East,3.5,-,N/A,,Mostly Cloudy,100,2012-12-18 01:11:00
7:32 PM,21.2,19.4,93,29.70,5.0,East,3.5,-,N/A,Snow,Light Snow,100,2012-12-18 01:32:00
7:52 PM,21.2,19.4,93,29.70,5.0,East,3.5,-,N/A,,Overcast,90,2012-12-18 01:52:00
8:11 PM,21.2,19.4,93,29.70,5.0,East,3.5,-,N/A,,Overcast,80,2012-12-18 02:11:00
8:32 PM,21.2,21.2,100,29.70,4.0,Calm,Calm,-,N/A,Snow,Light Snow,0,2012-12-18 02:32:00
8:52 PM,21.2,21.2,100,29.70,3.0,Calm,Calm,-,N/A,Snow,Light Snow,0,2012-12-18 02:52:00
9:11 PM,21.2,19.4,93,29.70,4.0,Calm,Calm,-,N/A,Snow,Light Snow,0,2012-12-18 03:11:00
9:32 PM,21.2,19.4,93,29.70,4.0,Calm,Calm,-,N/A,Snow,Light Snow,0,2012-12-18 03:32:00
9:52 PM,21.2,21.2,100,29.69,4.0,ENE,3.5,-,N/A,Snow,Light Snow,70,2012-12-18 03:52:00
10:11 PM,21.2,21.2,100,29.70,4.0,East,3.5,-,N/A,Snow,Light Snow,80,2012-12-18 04:11:00
10:32 PM,21.2,21.2,100,29.70,5.0,Calm,Calm,-,N/A,Snow,Light Snow,0,2012-12-18 04:32:00
10:51 PM,21.2,21.2,100,29.70,5.0,Calm,Calm,-,N/A,,Overcast,0,2012-12-18 04:51:00
11:12 PM,21.2,21.2,100,29.70,7.0,Calm,Calm,-,N/A,,Overcast,0,2012-12-18 05:12:00
11:31 PM,21.2,19.4,93,29.69,7.0,East,3.5,-,N/A,,Overcast,90,2012-12-18 05:31:00
11:52 PM,19.4,19.4,100,29.69,5.0,Calm,Calm,-,N/A,Snow,Light Snow,0,2012-12-18 05:52:00